Time;durP1;ratioP1;P1;durP2;ratioP2;P2;SDS_P1;SDS_P2;PMS_P1;PMS_P2;Temp;Humidity;BMP_temperature;BMP_pressure;BME280_temperature;BME280_humidity;BME280_pressure;Samples;Min_cycle;Max_cycle;Signal;HPM_P1;HPM_P2
2023/06/20 00:01:01;;;;;;;19.67;17.58;;;;;;;20.67;76.18;101071.72;6186833;23;20012;-81
2023/06/20 00:03:26;;;;;;;20.98;17.17;;;;;;;20.65;76.32;101069.22;6211140;23;20316;-81
2023/06/20 00:05:51;;;;;;;19.08;17.15;;;;;;;20.62;75.82;101061.56;6210780;23;20000;-82
2023/06/20 00:08:17;;;;;;;17.95;16.15;;;;;;;20.65;75.85;101063.06;6186047;23;20012;-82
2023/06/20 00:10:42;;;;;;;19.13;15.98;;;;;;;20.67;76.13;101062.88;6211922;23;20004;-82
2023/06/20 00:13:08;;;;;;;17.45;15.55;;;;;;;20.62;75.85;101060.72;6207889;23;20008;-83
2023/06/20 00:15:34;;;;;;;18.92;16.33;;;;;;;20.58;75.52;101064.75;6212676;23;19996;-82
2023/06/20 00:18:00;;;;;;;17.05;15.32;;;;;;;20.55;76.03;101060.59;6211098;23;20027;-82
2023/06/20 00:20:27;;;;;;;17.17;15.00;;;;;;;20.53;75.89;101059.94;6211037;23;20005;-81
2023/06/20 00:22:55;;;;;;;17.05;15.25;;;;;;;20.51;76.41;101053.91;6211290;23;20005;-82
2023/06/20 00:25:21;;;;;;;16.50;14.80;;;;;;;20.51;76.61;101053.91;6210528;23;20063;-82
2023/06/20 00:27:47;;;;;;;16.02;14.43;;;;;;;20.52;75.68;101055.59;6210572;23;20013;-82
2023/06/20 00:30:13;;;;;;;16.10;14.40;;;;;;;20.53;76.07;101056.41;6210654;23;20000;-82
2023/06/20 00:32:38;;;;;;;15.95;14.20;;;;;;;20.50;76.06;101057.59;6210630;23;20004;-82
2023/06/20 00:35:04;;;;;;;16.58;14.23;;;;;;;20.49;75.92;101050.59;6185003;23;20001;-82
2023/06/20 00:37:42;;;;;;;15.73;14.13;;;;;;;20.52;75.44;101057.44;6213348;23;20312;-83
2023/06/20 00:40:10;;;;;;;17.45;14.63;;;;;;;20.49;75.85;101055.94;6212816;23;20051;-83
2023/06/20 00:42:36;;;;;;;17.05;14.85;;;;;;;20.48;76.08;101054.28;6212920;23;20001;-83
2023/06/20 00:45:28;;;;;;;16.05;14.45;;;;;;;20.49;75.35;101055.94;6210882;23;20016;-83
2023/06/20 00:47:54;;;;;;;17.77;15.50;;;;;;;20.48;75.65;101051.59;6212169;23;20024;-83
2023/06/20 00:50:19;;;;;;;15.73;14.27;;;;;;;20.46;75.99;101050.94;6214118;23;20001;-83
2023/06/20 00:52:47;;;;;;;16.25;14.13;;;;;;;20.43;76.23;101056.63;6213550;23;20004;-76
2023/06/20 00:55:12;;;;;;;16.55;14.85;;;;;;;20.42;76.03;101054.97;6212832;23;19996;-82
2023/06/20 00:57:42;;;;;;;16.02;14.25;;;;;;;20.42;76.34;101060.31;6187076;23;20065;-82
2023/06/20 01:00:12;;;;;;;16.30;14.55;;;;;;;20.38;75.96;101037.53;6186084;23;20008;-83
2023/06/20 01:02:38;;;;;;;20.30;14.73;;;;;;;20.40;75.86;101035.56;6212646;23;20422;-83
2023/06/20 01:05:04;;;;;;;17.08;14.80;;;;;;;20.40;75.76;101040.06;6212615;23;20004;-83
2023/06/20 01:08:00;;;;;;;16.58;14.88;;;;;;;20.43;74.81;101040.59;6212932;23;20012;-83
2023/06/20 01:10:39;;;;;;;15.85;14.10;;;;;;;20.41;75.60;101034.56;6212997;23;20008;-83
2023/06/20 01:13:20;;;;;;;19.15;14.93;;;;;;;20.38;75.84;101032.19;6212944;23;20000;-79
2023/06/20 01:16:12;;;;;;;16.60;14.82;;;;;;;20.40;75.37;101038.25;6212617;23;20000;-83
2023/06/20 01:19:03;;;;;;;15.93;14.23;;;;;;;20.37;75.36;101040.41;6186428;23;20087;-83
2023/06/20 01:21:47;;;;;;;17.48;13.98;;;;;;;20.33;75.44;101035.41;6213355;23;20047;-82
2023/06/20 01:24:33;;;;;;;19.05;15.30;;;;;;;20.34;75.19;101029.03;6185921;23;20012;-84
2023/06/20 01:27:47;;;;;;;16.40;14.65;;;;;;;20.38;74.76;101026.84;6211663;23;20005;-83
2023/06/20 01:30:19;;;;;;;19.27;14.95;;;;;;;20.32;75.24;101027.56;6182979;23;20015;-83
2023/06/20 01:32:46;;;;;;;16.95;15.30;;;;;;;20.30;75.69;101032.25;6213049;23;20005;-83
2023/06/20 01:35:15;;;;;;;17.20;15.25;;;;;;;20.31;75.26;101021.38;6183829;23;20000;-83
2023/06/20 01:37:52;;;;;;;16.52;14.60;;;;;;;20.34;74.73;101020.19;6211556;23;20005;-81
2023/06/20 01:40:20;;;;;;;16.35;14.65;;;;;;;20.37;75.03;101014.50;6211683;23;20016;-82
2023/06/20 01:42:47;;;;;;;16.17;14.55;;;;;;;20.35;74.92;101016.50;6210541;23;20006;-83
2023/06/20 01:45:16;;;;;;;16.55;14.20;;;;;;;20.33;74.89;101013.19;6212247;23;20415;-80
2023/06/20 01:47:44;;;;;;;16.70;15.02;;;;;;;20.31;74.66;101007.19;6185236;23;20004;-82
2023/06/20 01:50:12;;;;;;;15.57;13.98;;;;;;;20.34;74.34;101006.81;6209964;23;20008;-82
2023/06/20 01:52:39;;;;;;;19.15;14.90;;;;;;;20.34;74.32;101006.81;6211712;23;20008;-83
2023/06/20 01:55:05;;;;;;;16.13;14.05;;;;;;;20.31;74.37;101000.00;6212174;23;19997;-83
2023/06/20 01:57:33;;;;;;;18.95;15.45;;;;;;;20.27;74.51;100996.00;6183661;23;20005;-82
2023/06/20 02:00:00;;;;;;;16.95;15.13;;;;;;;20.26;74.27;101004.19;6211728;23;20100;-83
2023/06/20 02:02:29;;;;;;;16.35;14.73;;;;;;;20.28;74.42;101002.19;6185578;23;20027;-82
2023/06/20 02:04:58;;;;;;;16.75;15.05;;;;;;;20.25;74.19;100994.50;6211827;23;20342;-82
2023/06/20 02:07:25;;;;;;;16.50;14.73;;;;;;;20.27;73.81;100995.16;6212515;23;20027;-82
2023/06/20 02:09:50;;;;;;;17.55;14.93;;;;;;;20.25;73.96;100995.34;6211498;23;20005;-83
2023/06/20 02:12:16;;;;;;;16.88;15.13;;;;;;;20.24;73.75;100990.16;6210998;23;20004;-82
2023/06/20 02:14:44;;;;;;;18.00;15.68;;;;;;;20.24;73.58;100992.84;6212229;23;20001;-83
2023/06/20 02:17:38;;;;;;;15.93;14.32;;;;;;;20.24;73.15;100987.50;6186056;23;20007;-83
2023/06/20 02:20:05;;;;;;;16.58;14.88;;;;;;;20.20;73.70;100996.88;6211886;23;20007;-83
2023/06/20 02:22:32;;;;;;;17.30;15.55;;;;;;;20.18;73.67;100988.19;6212559;23;20027;-83
2023/06/20 02:25:01;;;;;;;16.15;14.30;;;;;;;20.20;73.64;100991.53;6210537;23;20330;-82
2023/06/20 02:27:27;;;;;;;17.70;15.13;;;;;;;20.15;73.60;100992.03;6184579;23;20075;-83
2023/06/20 02:29:56;;;;;;;17.42;15.05;;;;;;;20.13;73.95;100993.22;6212253;23;20001;-82
2023/06/20 02:32:23;;;;;;;18.50;15.57;;;;;;;20.11;74.74;100992.56;6211032;23;20008;-83
2023/06/20 02:34:50;;;;;;;19.52;15.18;;;;;;;20.08;74.33;101004.44;6211650;23;20086;-82
2023/06/20 02:37:16;;;;;;;20.33;14.80;;;;;;;20.06;75.07;100995.75;6211205;23;20005;-82
2023/06/20 02:39:42;;;;;;;17.83;16.05;;;;;;;20.05;74.67;101001.28;6210034;23;20005;-81
2023/06/20 02:42:09;;;;;;;17.48;15.23;;;;;;;20.04;74.61;100997.78;6210974;23;20017;-81
2023/06/20 02:44:34;;;;;;;16.95;15.30;;;;;;;20.06;75.10;100997.59;6211421;23;20335;-82
2023/06/20 02:47:33;;;;;;;16.52;14.80;;;;;;;20.05;74.48;100999.44;6210925;23;20012;-82
2023/06/20 02:50:10;;;;;;;16.92;14.70;;;;;;;19.97;74.18;100992.25;6211405;23;20001;-81
2023/06/20 02:53:14;;;;;;;16.63;14.93;;;;;;;20.01;73.56;100996.28;6210624;23;20001;-82
2023/06/20 02:55:55;;;;;;;15.32;13.73;;;;;;;20.02;74.01;100999.78;6183783;23;20050;-81
2023/06/20 02:58:25;;;;;;;15.85;14.02;;;;;;;19.97;73.96;100994.91;6212716;23;20488;-82
2023/06/20 03:00:52;;;;;;;16.00;14.43;;;;;;;19.98;73.71;100993.91;6210947;23;20084;-79
2023/06/20 03:03:34;;;;;;;15.45;13.38;;;;;;;19.97;73.29;100992.25;6186165;23;20001;-81
2023/06/20 03:06:01;;;;;;;16.17;14.45;;;;;;;19.93;73.41;100990.09;6212491;23;20035;-82
2023/06/20 03:08:29;;;;;;;19.08;14.05;;;;;;;19.89;73.51;100986.94;6211037;23;19989;-82
2023/06/20 03:10:58;;;;;;;15.43;13.80;;;;;;;19.88;73.25;100990.59;6187007;23;20096;-82
2023/06/20 03:13:24;;;;;;;14.90;13.48;;;;;;;19.87;73.31;100985.44;6212275;23;20008;-82
2023/06/20 03:15:50;;;;;;;17.40;13.30;;;;;;;19.86;73.55;100983.78;6210407;23;20087;-79
2023/06/20 03:18:17;;;;;;;15.43;13.27;;;;;;;19.83;73.14;100979.59;6210116;23;20430;-81
2023/06/20 03:20:48;;;;;;;14.13;12.63;;;;;;;19.86;73.24;100973.09;6211514;23;20004;-82
2023/06/20 03:23:14;;;;;;;14.63;13.32;;;;;;;19.82;73.33;100975.28;6211459;23;20419;-81
2023/06/20 03:25:40;;;;;;;15.32;13.40;;;;;;;19.79;73.13;100983.63;6212599;23;20091;-82
2023/06/20 03:28:06;;;;;;;16.23;13.98;;;;;;;19.75;73.19;100984.97;6211572;23;20051;-82
2023/06/20 03:30:32;;;;;;;15.07;12.93;;;;;;;19.77;73.43;100988.31;6211511;23;20000;-81
2023/06/20 03:32:57;;;;;;;14.82;13.40;;;;;;;19.73;73.85;100986.97;6210422;23;20449;-82
2023/06/20 03:35:22;;;;;;;14.52;13.18;;;;;;;19.75;73.68;100986.81;6183146;23;20004;-81
2023/06/20 03:38:06;;;;;;;16.00;13.57;;;;;;;19.76;73.44;100999.97;6211974;23;20070;-82
2023/06/20 03:40:31;;;;;;;15.07;13.48;;;;;;;19.68;74.08;100997.34;6178882;23;20024;-81
2023/06/20 03:42:57;;;;;;;15.60;13.43;;;;;;;19.70;73.87;101006.00;6181101;23;20355;-81
2023/06/20 03:45:36;;;;;;;14.30;12.90;;;;;;;19.62;74.17;101014.03;6181307;23;20336;-82
2023/06/20 03:48:01;;;;;;;14.55;13.05;;;;;;;19.62;75.10;101016.69;6180776;23;20473;-82
2023/06/20 03:50:27;;;;;;;15.27;12.95;;;;;;;19.65;74.87;101019.03;6180348;23;20889;-82
2023/06/20 03:53:01;;;;;;;16.27;13.25;;;;;;;19.65;74.86;101021.69;6180807;23;20011;-82
2023/06/20 03:55:26;;;;;;;15.02;13.48;;;;;;;19.67;74.60;101027.72;6181061;23;20005;-82
2023/06/20 03:57:52;;;;;;;15.10;13.25;;;;;;;19.70;74.73;101022.84;6180800;23;20393;-82
2023/06/20 04:00:17;;;;;;;17.02;13.93;;;;;;;19.70;74.84;101027.38;6179362;23;20084;-82
2023/06/20 04:02:44;;;;;;;14.68;13.13;;;;;;;19.74;75.68;101028.69;6181059;23;20050;-82
2023/06/20 04:05:11;;;;;;;14.20;12.80;;;;;;;19.86;74.75;101027.34;6179545;23;20380;-82
2023/06/20 04:08:04;;;;;;;14.90;12.75;;;;;;;19.91;74.88;101035.66;6182469;23;20079;-80
2023/06/20 04:10:29;;;;;;;15.15;12.52;;;;;;;19.79;75.71;101031.69;6180205;23;20001;-83
2023/06/20 04:12:54;;;;;;;14.13;12.70;;;;;;;19.78;75.78;101018.50;6181535;23;20012;-82
2023/06/20 04:15:24;;;;;;;14.55;13.13;;;;;;;19.78;76.48;101019.34;6181629;23;20032;-82
2023/06/20 04:17:49;;;;;;;13.65;12.35;;;;;;;19.78;76.28;101014.00;6179514;23;20363;-82
2023/06/20 04:20:15;;;;;;;14.07;12.60;;;;;;;19.78;77.37;101015.84;6180572;23;20008;-82
2023/06/20 04:22:47;;;;;;;14.57;13.10;;;;;;;19.75;77.00;101019.69;6182680;23;20471;-82
2023/06/20 04:25:15;;;;;;;18.60;14.00;;;;;;;19.70;77.70;101012.19;6182535;23;20016;-83
2023/06/20 04:27:55;;;;;;;17.02;14.00;;;;;;;19.75;76.87;101002.81;6206900;23;20112;-82
2023/06/20 04:30:25;;;;;;;14.63;13.15;;;;;;;19.78;78.36;101000.66;6183467;23;20043;-80
2023/06/20 04:32:53;;;;;;;15.57;13.90;;;;;;;19.80;79.11;100998.66;6180823;23;20013;-81
2023/06/20 04:35:33;;;;;;;15.20;13.77;;;;;;;19.85;78.27;101006.97;6182968;23;20001;-81
2023/06/20 04:38:01;;;;;;;16.58;14.13;;;;;;;19.87;78.46;100998.78;6182559;23;20029;-81
2023/06/20 04:40:30;;;;;;;15.10;13.63;;;;;;;19.98;76.70;101001.09;6188402;23;20410;-81
2023/06/20 04:42:56;;;;;;;16.75;15.00;;;;;;;20.03;77.31;100996.09;6185078;23;20331;-81
2023/06/20 04:45:23;;;;;;;16.85;14.93;;;;;;;20.10;75.44;100990.91;6212040;23;20007;-81
2023/06/20 04:47:50;;;;;;;16.77;14.95;;;;;;;20.19;75.72;100988.03;6211108;23;20004;-82
2023/06/20 04:50:16;;;;;;;15.20;13.70;;;;;;;20.25;75.43;100983.81;6212652;23;20031;-81
2023/06/20 04:52:42;;;;;;;16.17;14.52;;;;;;;20.34;74.78;100983.59;6209850;23;20427;-79
2023/06/20 04:55:20;;;;;;;16.13;14.60;;;;;;;20.42;75.62;100979.28;6213713;23;20004;-82
2023/06/20 04:57:54;;;;;;;16.70;14.95;;;;;;;20.51;74.86;100989.75;6213122;23;20051;-82
2023/06/20 05:00:22;;;;;;;16.30;14.00;;;;;;;20.62;75.19;100976.00;6211562;23;20415;-82
2023/06/20 05:02:48;;;;;;;16.17;14.50;;;;;;;20.65;75.37;100969.47;6212534;23;20004;-81
2023/06/20 05:05:24;;;;;;;15.95;14.15;;;;;;;20.76;74.86;100965.53;6186115;23;20159;-81
2023/06/20 05:07:49;;;;;;;18.40;14.05;;;;;;;20.87;73.95;100962.50;6211816;23;20004;-82
2023/06/20 05:10:15;;;;;;;15.70;14.10;;;;;;;20.93;74.24;100961.78;6213115;23;20036;-82
2023/06/20 05:12:40;;;;;;;14.65;13.00;;;;;;;21.09;74.50;100955.47;6186543;23;20050;-81
2023/06/20 05:15:09;;;;;;;15.52;11.88;;;;;;;21.19;74.97;100951.50;6185496;23;20001;-82
2023/06/20 05:17:35;;;;;;;12.40;11.07;;;;;;;21.36;74.67;100943.41;6186838;23;20004;-80
2023/06/20 05:20:06;;;;;;;11.52;10.32;;;;;;;21.50;74.28;100943.41;6186125;23;20055;-81
2023/06/20 05:22:33;;;;;;;10.57;9.27;;;;;;;21.65;74.37;100945.31;6211926;23;20005;-82
2023/06/20 05:24:59;;;;;;;10.02;8.55;;;;;;;21.81;73.80;100945.94;6185186;23;20382;-82
2023/06/20 05:27:38;;;;;;;8.30;7.50;;;;;;;21.88;74.15;100940.69;6212745;23;20005;-82
2023/06/20 05:30:04;;;;;;;9.25;6.30;;;;;;;21.98;74.17;100940.38;6186234;23;20015;-82
2023/06/20 05:32:41;;;;;;;9.48;7.32;;;;;;;22.03;74.54;100929.97;6212104;23;20054;-82
2023/06/20 05:35:07;;;;;;;6.53;5.80;;;;;;;22.23;74.38;100928.41;6211722;23;20054;-82
2023/06/20 05:37:38;;;;;;;6.85;5.88;;;;;;;22.29;73.72;100927.63;6211562;23;20000;-81
2023/06/20 05:40:09;;;;;;;6.72;5.40;;;;;;;22.33;73.44;100928.91;6212017;23;20005;-82
2023/06/20 05:42:40;;;;;;;7.97;5.25;;;;;;;22.47;73.38;100922.72;6211878;23;20006;-82
2023/06/20 05:45:06;;;;;;;6.22;5.18;;;;;;;22.58;73.34;100925.91;6186000;23;20386;-82
2023/06/20 05:47:32;;;;;;;6.00;5.10;;;;;;;22.60;73.06;100921.19;6211762;23;20001;-82
2023/06/20 05:49:59;;;;;;;7.28;5.15;;;;;;;22.61;72.77;100926.38;6211097;23;20019;-82
2023/06/20 05:52:24;;;;;;;6.30;5.45;;;;;;;22.64;73.14;100931.34;6212376;23;20000;-82
2023/06/20 05:54:53;;;;;;;6.03;5.45;;;;;;;22.66;72.22;100931.97;6212036;23;20020;-82
2023/06/20 05:57:19;;;;;;;5.97;5.05;;;;;;;22.68;72.25;100942.53;6210315;23;20004;-83
2023/06/20 05:59:44;;;;;;;6.30;5.20;;;;;;;22.68;72.50;100953.25;6212111;23;20001;-81
2023/06/20 06:02:10;;;;;;;5.95;5.18;;;;;;;22.66;72.14;100956.13;6210206;23;20008;-82
2023/06/20 06:04:35;;;;;;;6.10;5.50;;;;;;;22.66;72.57;100955.28;6211365;23;20084;-75
2023/06/20 06:07:01;;;;;;;7.72;5.70;;;;;;;22.58;72.44;100953.56;6212646;23;20232;-75
2023/06/20 06:09:26;;;;;;;5.93;5.32;;;;;;;22.52;72.87;100960.53;6213341;23;20004;-80
2023/06/20 06:11:52;;;;;;;6.93;4.90;;;;;;;22.51;73.39;100956.19;6186701;23;20493;-74
2023/06/20 06:14:18;;;;;;;6.85;5.55;;;;;;;22.55;73.52;100967.34;6212362;23;20031;-75
2023/06/20 06:16:45;;;;;;;9.73;5.15;;;;;;;22.52;73.50;100963.19;6211993;23;20007;-75
2023/06/20 06:19:10;;;;;;;8.15;5.68;;;;;;;22.61;73.80;100955.03;6211721;23;20004;-75
2023/06/20 06:21:35;;;;;;;6.10;5.50;;;;;;;22.63;74.13;100950.31;6212716;23;20084;-75
2023/06/20 06:24:04;;;;;;;7.05;6.10;;;;;;;22.68;73.76;100948.72;6212402;23;21968;-75
2023/06/20 06:26:29;;;;;;;10.00;5.82;;;;;;;22.76;74.06;100934.34;6212066;23;20316;-75
2023/06/20 06:28:56;;;;;;;6.78;5.60;;;;;;;22.76;73.83;100950.44;6211397;23;20385;-81
2023/06/20 06:31:29;;;;;;;6.18;5.57;;;;;;;22.79;73.27;100950.06;6184330;23;20000;-74
2023/06/20 06:33:56;;;;;;;6.35;5.60;;;;;;;22.79;73.58;100953.56;6212006;23;20035;-74
2023/06/20 06:36:24;;;;;;;7.70;6.20;;;;;;;22.80;73.44;100957.09;6211629;23;20454;-74
2023/06/20 06:38:50;;;;;;;9.60;5.90;;;;;;;22.84;73.47;100958.44;6210433;23;20075;-74
2023/06/20 06:41:17;;;;;;;7.22;5.82;;;;;;;22.85;73.98;100959.25;6211187;23;20013;-75
2023/06/20 06:43:44;;;;;;;6.80;6.10;;;;;;;22.87;73.41;100955.38;6210889;23;20000;-74
2023/06/20 06:46:10;;;;;;;10.43;5.75;;;;;;;22.85;74.27;100943.16;6208657;23;20393;-74
2023/06/20 06:48:36;;;;;;;6.10;5.40;;;;;;;22.86;73.93;100945.66;6212030;23;20008;-74
2023/06/20 06:51:03;;;;;;;5.88;5.38;;;;;;;22.91;74.03;100953.97;6211624;23;20319;-74
2023/06/20 06:53:28;;;;;;;7.65;5.90;;;;;;;22.97;73.78;100949.66;6210040;23;20377;-75
2023/06/20 06:55:54;;;;;;;7.07;5.88;;;;;;;22.95;73.05;100949.88;6211546;23;20068;-75
2023/06/20 06:58:19;;;;;;;6.35;5.40;;;;;;;23.02;73.27;100950.75;6212822;23;20004;-75
2023/06/20 07:00:46;;;;;;;9.30;5.53;;;;;;;23.08;73.20;100959.88;6210611;23;20082;-77
2023/06/20 07:03:12;;;;;;;6.15;5.55;;;;;;;23.16;73.27;100957.06;6184233;23;20009;-77
2023/06/20 07:05:37;;;;;;;7.63;5.95;;;;;;;23.26;73.06;100946.03;6210753;23;20011;-76
2023/06/20 07:08:03;;;;;;;6.97;6.28;;;;;;;23.39;72.43;100951.50;6184180;23;20011;-76
2023/06/20 07:10:29;;;;;;;7.88;6.65;;;;;;;23.59;71.71;100947.09;6185022;23;20005;-76
2023/06/20 07:12:55;;;;;;;8.20;6.78;;;;;;;23.84;69.66;100947.50;6211958;23;20008;-77
2023/06/20 07:15:21;;;;;;;8.40;6.53;;;;;;;24.12;69.66;100935.84;6210725;23;20435;-77
2023/06/20 07:17:47;;;;;;;8.50;7.18;;;;;;;24.33;67.91;100933.91;6185224;23;20004;-77
2023/06/20 07:20:13;;;;;;;9.27;7.03;;;;;;;24.64;67.46;100924.47;6185410;23;20083;-77
2023/06/20 07:22:39;;;;;;;7.20;6.50;;;;;;;24.81;65.91;100924.91;6209665;23;20037;-76
2023/06/20 07:25:05;;;;;;;8.93;6.88;;;;;;;25.05;64.27;100932.44;6211496;23;20017;-77
2023/06/20 07:27:31;;;;;;;12.70;7.30;;;;;;;25.22;63.42;100922.94;6211070;23;20001;-76
2023/06/20 07:29:59;;;;;;;8.57;7.07;;;;;;;25.44;62.60;100928.09;6211151;23;20008;-76
2023/06/20 07:32:25;;;;;;;8.90;8.00;;;;;;;25.51;62.91;100918.94;6212189;23;20009;-77
2023/06/20 07:34:50;;;;;;;7.63;6.93;;;;;;;25.86;61.35;100922.22;6210549;23;20426;-77
2023/06/20 07:37:15;;;;;;;7.72;6.93;;;;;;;26.03;60.21;100919.91;6210873;23;20318;-79
2023/06/20 07:39:46;;;;;;;6.93;5.68;;;;;;;25.90;59.88;100917.25;6208399;23;20051;-78
2023/06/20 07:42:12;;;;;;;6.70;5.75;;;;;;;26.17;59.89;100909.88;6210659;23;20016;-77
2023/06/20 07:44:37;;;;;;;6.38;5.70;;;;;;;26.35;59.20;100911.91;6211512;23;20005;-78
2023/06/20 07:47:03;;;;;;;7.95;6.45;;;;;;;26.54;58.46;100928.00;6212013;23;20007;-78
2023/06/20 07:49:28;;;;;;;10.30;6.28;;;;;;;26.90;57.84;100926.53;6210664;23;20005;-77
2023/06/20 07:51:53;;;;;;;6.13;5.63;;;;;;;27.31;56.65;100928.72;6211882;23;20027;-77
2023/06/20 07:54:19;;;;;;;10.95;6.63;;;;;;;27.28;55.42;100929.16;6210127;23;20000;-78
2023/06/20 07:56:44;;;;;;;10.15;6.10;;;;;;;27.28;55.62;100934.56;6207763;23;20040;-77
2023/06/20 07:59:09;;;;;;;6.82;5.82;;;;;;;27.52;55.31;100929.34;6184216;23;20165;-77
2023/06/20 08:01:35;;;;;;;9.02;5.07;;;;;;;27.77;54.58;100932.88;6212683;23;20009;-78
2023/06/20 08:04:00;;;;;;;7.40;5.05;;;;;;;27.73;54.33;100931.69;6211048;23;20074;-77
2023/06/20 08:06:26;;;;;;;8.63;5.90;;;;;;;27.63;54.64;100917.84;6210658;23;20030;-78
2023/06/20 08:08:51;;;;;;;6.47;4.85;;;;;;;27.77;55.09;100916.66;6211438;23;20000;-79
2023/06/20 08:11:21;;;;;;;6.93;5.65;;;;;;;28.05;53.73;100924.25;6211405;23;20004;-78
2023/06/20 08:13:46;;;;;;;6.15;5.55;;;;;;;28.05;53.91;100927.78;6211219;23;20039;-77
2023/06/20 08:16:11;;;;;;;6.93;5.28;;;;;;;27.99;53.99;100925.97;6212824;22;20427;-77
2023/06/20 08:18:37;;;;;;;6.25;5.38;;;;;;;28.01;53.80;100918.44;6184118;23;20008;-77
2023/06/20 08:21:04;;;;;;;9.18;5.50;;;;;;;28.02;54.14;100909.31;6185478;23;20035;-78
2023/06/20 08:23:30;;;;;;;6.80;5.65;;;;;;;28.21;53.31;100907.38;6210590;23;20005;-79
2023/06/20 08:25:56;;;;;;;7.40;5.57;;;;;;;28.32;53.48;100920.16;6210547;23;20013;-78
2023/06/20 08:28:25;;;;;;;6.35;5.50;;;;;;;28.41;53.21;100917.97;6210813;23;20050;-78
2023/06/20 08:30:52;;;;;;;5.35;4.85;;;;;;;28.46;52.27;100914.59;6209684;23;20005;-78
2023/06/20 08:33:19;;;;;;;4.80;4.10;;;;;;;28.68;50.42;100911.13;6184974;23;20504;-78
2023/06/20 08:35:44;;;;;;;4.00;3.70;;;;;;;28.85;50.73;100908.63;6211153;23;20426;-78
2023/06/20 08:38:09;;;;;;;5.65;3.90;;;;;;;29.15;49.47;100913.94;6210467;23;20032;-79
2023/06/20 08:40:36;;;;;;;4.32;4.03;;;;;;;28.98;50.27;100913.00;6209810;23;20012;-78
2023/06/20 08:43:02;;;;;;;5.00;4.32;;;;;;;28.93;50.12;100907.47;6209127;23;20934;-78
2023/06/20 08:45:28;;;;;;;5.40;4.78;;;;;;;28.75;50.08;100896.66;6210664;23;20039;-78
2023/06/20 08:47:58;;;;;;;8.93;4.30;;;;;;;28.93;50.66;100904.75;6209660;23;20000;-78
2023/06/20 08:50:25;;;;;;;4.80;4.38;;;;;;;29.11;49.93;100911.94;6211543;23;20004;-77
2023/06/20 08:52:54;;;;;;;4.60;4.20;;;;;;;29.29;49.16;100914.56;6208967;23;20024;-77
2023/06/20 08:55:21;;;;;;;4.57;4.15;;;;;;;29.43;48.67;100904.31;6209924;23;20335;-77
2023/06/20 08:57:46;;;;;;;5.47;3.50;;;;;;;29.31;49.31;100899.72;6209975;23;20001;-77
2023/06/20 09:00:20;;;;;;;4.60;4.07;;;;;;;29.30;49.31;100892.66;6209815;23;20477;-77
2023/06/20 09:02:49;;;;;;;4.25;3.80;;;;;;;29.57;49.27;100892.19;6184011;23;20513;-77
2023/06/20 09:05:15;;;;;;;5.22;3.92;;;;;;;29.75;48.10;100896.66;6209682;23;20001;-77
2023/06/20 09:07:44;;;;;;;5.05;4.07;;;;;;;30.06;47.04;100895.44;6184199;23;20000;-77
2023/06/20 09:10:13;;;;;;;3.88;3.55;;;;;;;30.32;45.62;100902.16;6185700;23;20346;-78
2023/06/20 09:12:53;;;;;;;6.10;3.90;;;;;;;30.44;47.14;100901.06;6213028;23;20398;-78
2023/06/20 09:15:23;;;;;;;5.03;3.92;;;;;;;30.37;46.34;100900.38;6211578;23;20403;-78
2023/06/20 09:17:55;;;;;;;6.07;4.00;;;;;;;30.48;46.63;100906.84;6212641;23;20000;-78
2023/06/20 09:20:27;;;;;;;6.40;3.90;;;;;;;30.75;45.84;100901.63;6210875;23;20004;-77
2023/06/20 09:22:52;;;;;;;5.90;3.83;;;;;;;30.55;44.83;100907.50;6212939;23;20342;-77
2023/06/20 09:25:23;;;;;;;4.20;3.80;;;;;;;30.39;46.07;100917.25;6211811;23;20020;-78
2023/06/20 09:27:50;;;;;;;5.22;3.20;;;;;;;30.03;45.40;100923.06;6210643;23;20028;-78
2023/06/20 09:30:15;;;;;;;5.80;3.70;;;;;;;30.16;45.94;100914.63;6212166;23;20024;-77
2023/06/20 09:32:44;;;;;;;5.25;3.40;;;;;;;30.18;46.58;100912.50;6211882;23;20000;-78
2023/06/20 09:35:13;;;;;;;6.32;3.80;;;;;;;30.18;46.96;100912.50;6211599;23;20027;-77
2023/06/20 09:37:51;;;;;;;5.45;3.70;;;;;;;30.55;46.57;100905.59;6212938;23;20007;-76
2023/06/20 09:40:18;;;;;;;5.35;3.75;;;;;;;30.46;45.57;100917.94;6184904;23;20000;-77
2023/06/20 09:42:45;;;;;;;4.43;3.97;;;;;;;30.39;45.79;100910.97;6211199;23;20001;-78
2023/06/20 09:45:13;;;;;;;7.82;3.97;;;;;;;30.39;44.79;100898.22;6211016;23;20009;-78
2023/06/20 09:47:40;;;;;;;5.18;3.80;;;;;;;30.37;44.90;100903.09;6212162;23;20492;-78
2023/06/20 09:50:13;;;;;;;4.45;3.67;;;;;;;30.45;44.27;100913.56;6184034;23;20007;-78
2023/06/20 09:53:10;;;;;;;4.43;3.25;;;;;;;30.68;45.53;100906.41;6212498;23;20005;-78
2023/06/20 09:55:38;;;;;;;4.97;3.20;;;;;;;30.86;45.84;100909.72;6180647;23;20008;-78
2023/06/20 09:58:06;;;;;;;4.55;3.65;;;;;;;30.66;43.78;100911.25;6212085;23;20004;-79
2023/06/20 10:00:33;;;;;;;5.15;3.05;;;;;;;30.33;44.19;100907.34;6211460;23;20008;-79
2023/06/20 10:03:05;;;;;;;2.92;2.55;;;;;;;30.65;42.90;100906.88;6211671;23;20005;-79
2023/06/20 10:05:32;;;;;;;;;;;;;;;31.05;44.96;100899.41;6184697;23;20320;-78
2023/06/20 10:07:59;;;;;;;3.05;2.75;;;;;;;31.04;43.94;100899.66;6212198;23;19907;-79
2023/06/20 10:10:24;;;;;;;3.47;3.10;;;;;;;31.11;44.03;100908.47;6211133;23;20011;-80
2023/06/20 10:12:50;;;;;;;6.57;3.22;;;;;;;31.14;43.27;100892.50;6185032;23;20000;-78
2023/06/20 10:15:16;;;;;;;5.50;3.13;;;;;;;31.20;42.96;100895.31;6185698;23;20023;-80
2023/06/20 10:17:46;;;;;;;3.80;3.40;;;;;;;30.92;43.77;100883.44;6210878;23;20004;-77
2023/06/20 10:20:28;;;;;;;5.68;3.20;;;;;;;31.05;44.06;100885.00;6184226;23;20023;-78
2023/06/20 10:22:58;;;;;;;3.85;2.53;;;;;;;31.05;42.55;100885.00;6211023;23;20062;-76
2023/06/20 10:25:26;;;;;;;6.30;2.50;;;;;;;31.35;41.83;100879.25;6210815;23;20012;-76
2023/06/20 10:28:05;;;;;;;2.92;2.40;;;;;;;31.65;41.64;100885.13;6211562;23;20036;-77
2023/06/20 10:30:55;;;;;;;6.25;2.13;;;;;;;31.81;41.60;100869.00;6210376;23;20070;-77
2023/06/20 10:33:28;;;;;;;2.72;2.10;;;;;;;31.82;40.70;100857.88;6211928;23;20029;-77
2023/06/20 10:35:55;;;;;;;3.05;2.00;;;;;;;31.95;41.37;100852.03;6211301;23;20000;-79
2023/06/20 10:38:20;;;;;;;2.10;1.95;;;;;;;32.14;40.71;100849.78;6183946;23;20351;-79
2023/06/20 10:40:45;;;;;;;2.30;2.10;;;;;;;32.29;38.51;100844.53;6183417;23;20160;-77
2023/06/20 10:43:18;;;;;;;3.47;2.10;;;;;;;31.74;39.22;100850.16;6211867;23;20071;-78
2023/06/20 10:45:58;;;;;;;2.63;1.88;;;;;;;31.93;40.55;100846.00;6211104;23;20008;-77
2023/06/20 10:48:24;;;;;;;2.90;2.10;;;;;;;32.04;39.50;100836.09;6212400;23;20072;-77
2023/06/20 10:50:51;;;;;;;4.50;2.20;;;;;;;32.19;39.08;100855.28;6211569;23;20005;-78
2023/06/20 10:53:16;;;;;;;2.25;1.92;;;;;;;32.53;37.73;100845.03;6211410;23;20430;-77
2023/06/20 10:55:43;;;;;;;3.08;2.35;;;;;;;32.45;38.08;100845.50;6184480;23;20179;-77
2023/06/20 10:58:09;;;;;;;3.30;1.90;;;;;;;32.69;37.90;100838.63;6211222;23;20008;-78
2023/06/20 11:00:34;;;;;;;4.57;2.15;;;;;;;32.32;37.68;100841.28;6210660;23;20084;-80
2023/06/20 11:03:00;;;;;;;2.75;2.20;;;;;;;32.67;38.26;100826.34;6184460;23;20012;-78
2023/06/20 11:05:28;;;;;;;2.38;2.17;;;;;;;32.76;38.14;100818.50;6210139;23;20032;-77
2023/06/20 11:07:58;;;;;;;3.42;2.05;;;;;;;32.88;37.40;100825.47;6183388;23;20008;-77
2023/06/20 11:10:31;;;;;;;2.42;1.83;;;;;;;32.90;36.07;100814.28;6212961;23;20007;-78
2023/06/20 11:13:02;;;;;;;3.17;2.00;;;;;;;32.87;35.73;100821.09;6210298;23;20004;-77
2023/06/20 11:15:30;;;;;;;4.93;1.92;;;;;;;32.86;35.10;100813.16;6211582;23;20005;-77
2023/06/20 11:17:57;;;;;;;5.10;2.20;;;;;;;33.01;35.94;100816.00;6185140;23;20004;-77
2023/06/20 11:20:24;;;;;;;4.18;2.10;;;;;;;32.85;36.36;100808.81;6210454;23;20331;-77
2023/06/20 11:22:55;;;;;;;6.13;2.13;;;;;;;32.72;36.96;100808.13;6210588;23;20023;-80
2023/06/20 11:25:47;;;;;;;4.20;2.30;;;;;;;32.81;37.75;100796.75;6209404;23;20431;-78